Time;durP1;ratioP1;P1;durP2;ratioP2;P2;SDS_P1;SDS_P2;PMS_P1;PMS_P2;Temp;Humidity;BMP_temperature;BMP_pressure;BME280_temperature;BME280_humidity;BME280_pressure;Samples;Min_cycle;Max_cycle;Signal;HPM_P1;HPM_P2
2022/03/07 00:01:50;;;;;;;0.20;0.20;;;;;;;6.65;60.40;99964.19;5036058;28;20490;-74
2022/03/07 00:04:17;;;;;;;0.20;0.20;;;;;;;6.66;60.63;99968.56;5035818;28;20044;-73
2022/03/07 00:06:44;;;;;;;0.20;0.20;;;;;;;6.63;60.21;99967.31;5035543;28;20083;-74
2022/03/07 00:09:09;;;;;;;0.20;0.20;;;;;;;6.61;61.42;99969.63;5035617;28;20071;-74
2022/03/07 00:11:35;;;;;;;0.20;0.20;;;;;;;6.57;62.05;99972.25;5036858;28;20033;-74
2022/03/07 00:14:02;;;;;;;0.30;0.30;;;;;;;6.56;62.87;99983.66;5036875;28;20088;-74
2022/03/07 00:16:28;;;;;;;0.20;0.20;;;;;;;6.42;62.54;99981.16;5036907;28;20062;-73
2022/03/07 00:18:53;;;;;;;0.20;0.20;;;;;;;6.39;62.42;99989.31;5053670;28;20055;-73
2022/03/07 00:21:20;;;;;;;0.20;0.20;;;;;;;6.27;63.02;99990.88;5035728;28;20044;-73
2022/03/07 00:23:46;;;;;;;0.20;0.20;;;;;;;6.14;64.00;99994.75;5035507;28;20025;-73
2022/03/07 00:26:17;;;;;;;0.20;0.20;;;;;;;6.10;64.53;100009.56;5035982;28;20024;-74
2022/03/07 00:28:43;;;;;;;0.20;0.20;;;;;;;5.98;65.81;100007.56;5035858;28;20029;-74
2022/03/07 00:33:53;;;;;;;0.20;0.20;;;;;;;5.67;66.12;100005.94;5053592;28;20130;-75
2022/03/07 00:36:20;;;;;;;0.20;0.20;;;;;;;5.71;68.76;100025.41;5052904;28;20060;-74
2022/03/07 00:38:47;;;;;;;0.20;0.20;;;;;;;5.60;70.02;100019.47;5035559;28;20065;-74
2022/03/07 00:41:12;;;;;;;0.20;0.20;;;;;;;5.59;70.79;100020.59;5035773;28;20029;-75
2022/03/07 00:43:40;;;;;;;0.20;0.20;;;;;;;5.42;72.64;100006.88;5037442;28;20462;-74
2022/03/07 00:46:06;;;;;;;0.20;0.20;;;;;;;5.52;73.72;100021.13;5038926;28;20039;-74
2022/03/07 00:48:31;;;;;;;0.20;0.20;;;;;;;5.49;74.11;100023.75;5039439;28;20360;-75
2022/03/07 00:50:57;;;;;;;0.20;0.20;;;;;;;5.43;75.54;100019.53;5039082;28;20036;-75
2022/03/07 00:53:25;;;;;;;0.20;0.20;;;;;;;5.18;76.52;99997.28;5039093;28;20024;-75
2022/03/07 00:55:52;;;;;;;0.20;0.20;;;;;;;5.23;78.34;100023.88;5056364;28;20078;-75
2022/03/07 00:58:17;;;;;;;0.20;0.20;;;;;;;4.94;79.39;100019.91;5038803;28;20028;-75
2022/03/07 01:00:44;;;;;;;0.30;0.30;;;;;;;5.00;81.17;100015.00;5038438;28;20029;-75
2022/03/07 01:03:11;;;;;;;0.20;0.20;;;;;;;4.95;81.28;100017.94;5038704;28;20025;-75
2022/03/07 01:05:37;;;;;;;0.20;0.20;;;;;;;4.94;81.75;100024.59;5056332;28;20025;-75
2022/03/07 01:08:03;;;;;;;0.20;0.20;;;;;;;4.65;79.78;100023.38;5038611;28;20040;-76
2022/03/07 01:10:29;;;;;;;0.20;0.20;;;;;;;4.80;81.06;100030.34;5056213;28;20033;-75
2022/03/07 01:12:55;;;;;;;0.20;0.20;;;;;;;4.63;80.93;100028.41;5038580;28;20040;-75
2022/03/07 01:15:21;;;;;;;0.20;0.20;;;;;;;4.46;81.52;100036.69;5038518;28;20033;-76
2022/03/07 01:17:47;;;;;;;0.20;0.20;;;;;;;4.36;81.20;100032.31;5039081;28;20029;-75
2022/03/07 01:20:16;;;;;;;0.20;0.20;;;;;;;4.42;80.89;100031.03;5038194;28;20380;-76
2022/03/07 01:22:41;;;;;;;0.20;0.20;;;;;;;4.54;81.70;100030.38;5010849;28;20022;-76
2022/03/07 01:25:08;;;;;;;0.20;0.20;;;;;;;4.45;80.94;100038.63;5018798;28;20029;-76
2022/03/07 01:27:34;;;;;;;0.20;0.20;;;;;;;4.47;81.25;100035.56;5035644;28;20064;-76
2022/03/07 01:29:59;;;;;;;0.20;0.20;;;;;;;4.52;81.63;100013.34;5019616;28;20025;-75
2022/03/07 01:32:25;;;;;;;0.20;0.20;;;;;;;4.22;81.08;99987.63;5018624;28;20396;-76
2022/03/07 01:34:51;;;;;;;0.20;0.20;;;;;;;4.19;80.96;100013.84;5018976;28;20179;-76
2022/03/07 01:37:16;;;;;;;0.28;0.28;;;;;;;4.08;80.79;100015.31;5018550;28;20088;-76
2022/03/07 01:39:42;;;;;;;0.20;0.20;;;;;;;3.98;81.23;99998.31;5018603;28;20483;-77
2022/03/07 01:42:08;;;;;;;0.20;0.20;;;;;;;3.75;80.50;99967.38;5036249;28;20026;-76
2022/03/07 01:44:34;;;;;;;0.22;0.22;;;;;;;3.93;81.03;99999.28;5018713;28;20035;-76
2022/03/07 01:47:00;;;;;;;0.20;0.20;;;;;;;3.98;82.26;99998.31;5018145;28;20030;-75
2022/03/07 01:49:27;;;;;;;0.20;0.20;;;;;;;3.96;82.52;100004.16;5018092;28;20032;-75
2022/03/07 01:51:54;;;;;;;0.22;0.22;;;;;;;3.93;83.89;99986.31;5036081;28;20538;-75
2022/03/07 01:54:21;;;;;;;0.20;0.20;;;;;;;3.91;82.99;99993.28;5017781;28;20126;-75
2022/03/07 01:56:48;;;;;;;0.20;0.20;;;;;;;3.81;82.66;99993.59;5035962;28;20029;-75
2022/03/07 01:59:17;;;;;;;0.20;0.20;;;;;;;3.81;82.58;99988.09;5035658;28;20103;-75
2022/03/07 02:01:43;;;;;;;0.20;0.20;;;;;;;3.76;82.96;99991.00;5017875;28;20029;-75
2022/03/07 02:04:10;;;;;;;0.20;0.20;;;;;;;3.68;83.69;99985.19;5036061;28;20080;-75
2022/03/07 02:06:36;;;;;;;0.20;0.20;;;;;;;3.59;84.36;99987.09;5035387;28;20026;-75
2022/03/07 02:09:03;;;;;;;0.20;0.20;;;;;;;3.55;84.94;99979.81;5017577;28;20033;-75
2022/03/07 02:11:28;;;;;;;0.28;0.28;;;;;;;3.48;85.62;99980.28;5018126;28;20455;-75
2022/03/07 02:13:54;;;;;;;0.20;0.20;;;;;;;3.43;86.18;99977.69;5017564;28;20045;-75
2022/03/07 02:16:20;;;;;;;0.20;0.20;;;;;;;3.48;86.99;99985.78;5017661;28;20030;-75
2022/03/07 02:18:47;;;;;;;0.20;0.20;;;;;;;3.32;86.65;99977.16;5017493;28;20033;-75
2022/03/07 02:21:15;;;;;;;0.20;0.20;;;;;;;3.34;87.38;99985.09;5017522;28;20102;-75
2022/03/07 02:23:42;;;;;;;0.20;0.20;;;;;;;3.36;88.16;99972.66;5050495;28;20492;-75
2022/03/07 02:26:16;;;;;;;0.30;0.30;;;;;;;3.44;87.21;99968.31;5050597;28;20040;-75
2022/03/07 02:28:45;;;;;;;0.20;0.20;;;;;;;3.47;87.51;99972.38;5036991;28;20029;-75
2022/03/07 02:31:19;;;;;;;0.20;0.20;;;;;;;3.58;89.32;99974.47;5037144;28;20084;-75
2022/03/07 02:33:48;;;;;;;0.20;0.20;;;;;;;3.59;89.23;99956.84;5037007;28;20025;-75
2022/03/07 02:36:13;;;;;;;0.20;0.20;;;;;;;3.63;88.79;99957.81;5055229;28;20104;-75
2022/03/07 02:38:41;;;;;;;0.20;0.20;;;;;;;3.62;88.93;99958.13;5037034;28;20086;-75
2022/03/07 02:41:07;;;;;;;0.20;0.20;;;;;;;3.67;89.37;99967.06;5055079;28;20029;-74
2022/03/07 02:43:33;;;;;;;0.20;0.20;;;;;;;3.75;89.88;99961.88;5038499;28;20037;-75
2022/03/07 02:46:01;;;;;;;0.20;0.20;;;;;;;3.73;89.38;99955.88;5040112;28;20476;-75
2022/03/07 02:48:27;;;;;;;0.20;0.20;;;;;;;3.77;89.54;99948.59;5057854;28;20029;-75
2022/03/07 02:50:53;;;;;;;0.20;0.20;;;;;;;3.82;89.50;99951.19;5036449;28;20139;-75
2022/03/07 02:53:19;;;;;;;0.20;0.20;;;;;;;3.79;89.10;99949.09;5054178;28;20108;-75
2022/03/07 02:55:45;;;;;;;0.20;0.20;;;;;;;3.76;88.98;99942.28;5054980;28;20028;-75
2022/03/07 02:58:10;;;;;;;0.30;0.30;;;;;;;3.77;88.24;99954.09;5036626;28;20387;-75
2022/03/07 03:00:37;;;;;;;0.30;0.30;;;;;;;3.70;88.02;99942.78;5036494;28;20033;-75
2022/03/07 03:03:03;;;;;;;0.20;0.20;;;;;;;3.68;87.12;99948.59;5036469;28;20078;-75
2022/03/07 03:05:28;;;;;;;0.20;0.20;;;;;;;3.35;85.45;99942.72;5036912;28;20029;-74
2022/03/07 03:07:54;;;;;;;0.20;0.20;;;;;;;3.48;86.30;99939.03;5036667;28;20033;-74
2022/03/07 03:10:20;;;;;;;0.20;0.20;;;;;;;3.62;85.74;99936.94;5054775;28;20375;-74
2022/03/07 03:12:46;;;;;;;0.30;0.30;;;;;;;3.63;86.10;99937.75;5036278;28;20079;-75
2022/03/07 03:15:13;;;;;;;0.20;0.20;;;;;;;3.68;85.33;99932.91;5036321;28;20033;-75
2022/03/07 03:17:40;;;;;;;0.20;0.20;;;;;;;3.52;84.11;99929.00;5037027;28;20317;-75
2022/03/07 03:20:06;;;;;;;0.20;0.20;;;;;;;3.44;84.61;99929.78;5054118;28;20025;-75
2022/03/07 03:22:32;;;;;;;0.20;0.20;;;;;;;3.52;85.80;99939.19;5035894;28;20487;-75
2022/03/07 03:24:58;;;;;;;0.20;0.20;;;;;;;3.41;85.30;99941.44;5038817;28;20118;-74
2022/03/07 03:27:23;;;;;;;0.20;0.20;;;;;;;3.39;86.01;99932.69;5040187;28;20080;-75
2022/03/07 03:29:49;;;;;;;0.20;0.20;;;;;;;3.51;86.66;99940.31;5039078;28;20482;-75
2022/03/07 03:32:15;;;;;;;0.20;0.20;;;;;;;3.50;86.00;99944.19;5037065;28;20123;-75
2022/03/07 03:34:41;;;;;;;0.20;0.20;;;;;;;3.48;85.91;99944.53;5036558;28;20031;-75
2022/03/07 03:37:07;;;;;;;0.20;0.20;;;;;;;3.40;85.35;99934.31;5036021;28;20502;-75
2022/03/07 03:39:33;;;;;;;0.20;0.20;;;;;;;3.53;84.47;99947.13;5035972;28;20052;-75
2022/03/07 03:41:58;;;;;;;0.20;0.20;;;;;;;3.44;83.73;99946.28;5035993;28;20090;-75
2022/03/07 03:44:24;;;;;;;0.20;0.20;;;;;;;3.42;82.96;99941.13;5036355;28;20021;-74
2022/03/07 03:46:49;;;;;;;0.25;0.25;;;;;;;3.39;82.65;99941.75;5052378;28;20086;-75
2022/03/07 03:49:15;;;;;;;0.20;0.20;;;;;;;3.46;82.54;99941.28;5035774;28;20075;-75
2022/03/07 03:51:40;;;;;;;0.20;0.20;;;;;;;3.46;83.18;99944.03;5036282;28;20025;-75
2022/03/07 03:54:06;;;;;;;0.20;0.20;;;;;;;3.45;82.88;99938.84;5035692;28;20486;-75
2022/03/07 03:56:31;;;;;;;0.20;0.20;;;;;;;3.39;83.31;99916.19;5035758;28;20104;-75
2022/03/07 03:58:57;;;;;;;0.30;0.30;;;;;;;3.53;82.93;99938.06;5035647;28;20120;-75
2022/03/07 04:01:25;;;;;;;0.20;0.20;;;;;;;3.52;83.23;99942.75;5053746;28;20067;-75
2022/03/07 04:03:51;;;;;;;0.20;0.20;;;;;;;3.41;82.76;99941.44;5053777;28;20040;-74
2022/03/07 04:06:16;;;;;;;0.20;0.20;;;;;;;3.48;82.99;99933.53;5036224;28;20037;-74
2022/03/07 04:08:50;;;;;;;0.20;0.20;;;;;;;3.46;82.78;99916.50;5035785;28;20033;-75
2022/03/07 04:11:16;;;;;;;0.20;0.20;;;;;;;3.36;82.18;99925.09;5054163;28;20135;-75
2022/03/07 04:13:42;;;;;;;0.20;0.20;;;;;;;3.27;81.85;99927.00;5035844;28;20029;-75
2022/03/07 04:16:10;;;;;;;0.20;0.20;;;;;;;3.22;82.64;99932.66;5053426;28;20056;-74
2022/03/07 04:18:36;;;;;;;0.20;0.20;;;;;;;3.15;82.73;99928.44;5055926;28;20032;-75
2022/03/07 04:21:02;;;;;;;0.20;0.20;;;;;;;3.18;82.29;99931.69;5038954;28;20056;-75
2022/03/07 04:23:27;;;;;;;0.20;0.20;;;;;;;3.17;82.63;99924.56;5039435;28;20032;-75
2022/03/07 04:25:53;;;;;;;0.20;0.20;;;;;;;3.21;82.59;99931.84;5039419;28;20029;-75
2022/03/07 04:28:18;;;;;;;0.20;0.20;;;;;;;3.32;82.32;99927.66;5039227;28;20033;-75
2022/03/07 04:30:46;;;;;;;0.20;0.20;;;;;;;3.23;82.78;99929.59;5039360;28;20037;-75
2022/03/07 04:33:12;;;;;;;0.20;0.20;;;;;;;3.22;82.78;99929.91;5039784;28;20460;-75
2022/03/07 04:35:38;;;;;;;0.20;0.20;;;;;;;3.22;82.49;99932.66;5039499;28;20029;-75
2022/03/07 04:38:07;;;;;;;0.20;0.20;;;;;;;3.10;82.21;99931.34;5039129;28;20399;-75
2022/03/07 04:40:33;;;;;;;0.20;0.20;;;;;;;3.02;83.02;99921.13;5056968;28;20032;-75
2022/03/07 04:43:01;;;;;;;0.20;0.20;;;;;;;3.04;83.16;99935.38;5039106;28;20498;-75
2022/03/07 04:45:27;;;;;;;0.20;0.20;;;;;;;3.14;82.39;99937.84;5039063;28;20029;-75
2022/03/07 04:47:53;;;;;;;0.20;0.20;;;;;;;3.14;81.96;99926.84;5039373;28;20087;-75
2022/03/07 04:50:18;;;;;;;0.30;0.30;;;;;;;3.25;82.37;99943.84;5038927;28;20456;-75
2022/03/07 04:52:44;;;;;;;0.20;0.20;;;;;;;3.09;82.05;99912.41;5039079;28;20125;-75
2022/03/07 04:55:11;;;;;;;0.20;0.20;;;;;;;3.04;82.38;99926.31;5038826;28;20033;-75
2022/03/07 04:57:37;;;;;;;0.20;0.20;;;;;;;3.09;83.23;99943.47;5039089;28;20031;-75
2022/03/07 05:00:08;;;;;;;0.20;0.20;;;;;;;2.93;83.08;99939.53;5039622;28;20135;-75
2022/03/07 05:02:34;;;;;;;0.20;0.20;;;;;;;2.90;83.70;99937.41;5039210;28;20037;-73
2022/03/07 05:05:00;;;;;;;0.20;0.20;;;;;;;2.93;83.38;99947.78;5038664;28;20139;-75
2022/03/07 05:07:26;;;;;;;0.20;0.20;;;;;;;2.93;83.63;99944.19;5056105;28;20036;-75
2022/03/07 05:09:51;;;;;;;0.20;0.20;;;;;;;2.93;82.88;99935.94;5039204;28;20075;-74
2022/03/07 05:12:17;;;;;;;0.20;0.20;;;;;;;3.00;82.99;99959.13;5056137;28;20025;-75
2022/03/07 05:14:43;;;;;;;0.20;0.20;;;;;;;2.75;83.67;99938.63;5056691;28;20534;-75
2022/03/07 05:17:08;;;;;;;0.20;0.20;;;;;;;2.91;83.69;99955.53;5038343;28;20120;-74
2022/03/07 05:19:34;;;;;;;0.20;0.20;;;;;;;2.91;83.28;99952.78;5056363;28;20068;-74
2022/03/07 05:22:00;;;;;;;0.20;0.20;;;;;;;2.88;83.51;99950.66;5056207;28;20053;-75
2022/03/07 05:24:26;;;;;;;0.30;0.30;;;;;;;2.90;83.77;99959.41;5056382;28;20025;-74
2022/03/07 05:26:52;;;;;;;0.20;0.20;;;;;;;2.82;84.04;99955.50;5038378;28;20029;-75
2022/03/07 05:29:18;;;;;;;0.20;0.20;;;;;;;2.92;83.61;99956.31;5037446;28;20017;-75
2022/03/07 05:31:44;;;;;;;0.20;0.20;;;;;;;2.90;83.33;99953.91;5038549;28;20095;-75
2022/03/07 05:34:10;;;;;;;0.20;0.20;;;;;;;2.95;83.41;99956.50;5040564;28;20029;-75
2022/03/07 05:36:38;;;;;;;0.20;0.20;;;;;;;3.00;82.55;99959.13;5041404;28;20104;-75
2022/03/07 05:39:07;;;;;;;0.20;0.20;;;;;;;2.93;83.32;99950.53;5040165;28;20087;-75
2022/03/07 05:41:32;;;;;;;0.20;0.20;;;;;;;2.94;83.47;99943.91;5038065;28;20029;-75
2022/03/07 05:43:58;;;;;;;0.30;0.30;;;;;;;2.98;83.48;99964.09;5055889;28;20032;-75
2022/03/07 05:46:24;;;;;;;0.20;0.20;;;;;;;3.08;82.80;99957.50;5037827;28;20021;-75
2022/03/07 05:48:49;;;;;;;0.20;0.20;;;;;;;3.11;82.45;99957.69;5037694;28;20029;-74
2022/03/07 05:51:22;;;;;;;0.20;0.20;;;;;;;3.12;82.00;99956.56;5038156;28;20040;-74
2022/03/07 05:53:48;;;;;;;0.20;0.20;;;;;;;3.30;81.66;99960.19;5038332;28;20029;-74
2022/03/07 05:56:13;;;;;;;0.20;0.20;;;;;;;3.53;80.96;99971.88;5055288;28;20438;-74
2022/03/07 05:58:39;;;;;;;0.20;0.20;;;;;;;3.77;80.55;99976.13;5037732;28;20060;-74
2022/03/07 06:01:04;;;;;;;0.20;0.20;;;;;;;3.87;80.39;99971.09;5037335;28;20056;-74
2022/03/07 06:03:30;;;;;;;0.20;0.20;;;;;;;3.82;79.81;99978.72;5038201;28;20060;-74
2022/03/07 06:05:56;;;;;;;0.20;0.20;;;;;;;4.19;79.52;99980.81;5038076;28;20021;-75
2022/03/07 06:08:22;;;;;;;0.20;0.20;;;;;;;4.58;78.33;99983.66;5037410;28;20025;-75
2022/03/07 06:10:48;;;;;;;0.20;0.20;;;;;;;4.46;77.71;99987.09;5037890;28;20039;-75
2022/03/07 06:13:14;;;;;;;0.20;0.20;;;;;;;4.29;77.11;99987.13;5037388;28;20025;-74
2022/03/07 06:15:43;;;;;;;0.20;0.20;;;;;;;4.25;77.32;99992.47;5037315;28;20024;-75
2022/03/07 06:18:11;;;;;;;0.20;0.20;;;;;;;4.19;77.95;99993.78;5055230;28;20024;-75
2022/03/07 06:20:36;;;;;;;0.30;0.30;;;;;;;4.07;77.75;99997.19;5036694;28;20059;-74
2022/03/07 06:23:02;;;;;;;0.20;0.20;;;;;;;4.03;77.97;100001.72;5037757;28;20116;-75
2022/03/07 06:25:29;;;;;;;0.20;0.20;;;;;;;4.23;78.21;99991.19;5037592;28;20032;-75
2022/03/07 06:27:55;;;;;;;0.20;0.20;;;;;;;4.16;76.92;99995.25;5054929;28;20029;-75
2022/03/07 06:30:20;;;;;;;0.20;0.20;;;;;;;4.15;76.75;99993.59;5037084;28;20441;-75
2022/03/07 06:32:46;;;;;;;0.20;0.20;;;;;;;4.16;76.89;99999.94;5037028;28;20033;-74
2022/03/07 06:35:11;;;;;;;0.20;0.20;;;;;;;4.14;77.40;100000.25;5036964;28;20044;-74
2022/03/07 06:37:48;;;;;;;0.20;0.20;;;;;;;4.23;77.68;100005.78;5056153;28;20126;-74
2022/03/07 06:40:15;;;;;;;0.20;0.20;;;;;;;4.31;76.59;100004.13;5058062;28;20037;-75
2022/03/07 06:42:48;;;;;;;0.20;0.20;;;;;;;4.33;76.86;100007.38;5039472;28;20060;-75
2022/03/07 06:45:16;;;;;;;0.20;0.20;;;;;;;4.23;77.06;100015.97;5055315;28;20402;-74
2022/03/07 06:47:45;;;;;;;0.20;0.20;;;;;;;4.20;77.81;100012.72;5054673;28;20036;-74
2022/03/07 06:50:12;;;;;;;0.20;0.20;;;;;;;4.22;78.15;100025.38;5036784;28;20039;-74
2022/03/07 06:52:37;;;;;;;0.20;0.20;;;;;;;4.14;78.01;100015.97;5054926;28;20056;-74
2022/03/07 06:55:05;;;;;;;0.20;0.20;;;;;;;4.15;77.58;100025.84;5055073;28;20063;-75
2022/03/07 06:57:31;;;;;;;0.20;0.20;;;;;;;4.18;77.27;100027.97;5036586;28;20021;-74
2022/03/07 06:59:56;;;;;;;0.20;0.20;;;;;;;4.21;76.46;100030.09;5037062;28;20120;-74
2022/03/07 07:02:23;;;;;;;0.20;0.20;;;;;;;4.26;76.00;100027.16;5037547;28;20471;-74
2022/03/07 07:04:49;;;;;;;0.20;0.20;;;;;;;4.02;76.55;100005.59;5037277;28;20028;-75
2022/03/07 07:07:16;;;;;;;0.20;0.20;;;;;;;3.94;77.26;100021.00;5039175;28;20021;-75
2022/03/07 07:09:41;;;;;;;0.20;0.20;;;;;;;4.09;78.46;100024.38;5054950;28;20487;-74
2022/03/07 07:12:08;;;;;;;0.20;0.20;;;;;;;4.22;78.60;100025.38;5037602;28;20033;-74
2022/03/07 07:14:34;;;;;;;0.20;0.20;;;;;;;4.35;78.36;100035.41;5038265;28;20028;-73
2022/03/07 07:17:00;;;;;;;0.20;0.20;;;;;;;4.24;77.27;100017.59;5038225;28;20033;-74
2022/03/07 07:19:26;;;;;;;0.20;0.20;;;;;;;4.32;76.55;100044.34;5038724;28;20021;-74
2022/03/07 07:21:52;;;;;;;0.20;0.20;;;;;;;4.45;77.01;100041.41;5056554;28;20057;-74
2022/03/07 07:24:18;;;;;;;0.20;0.20;;;;;;;4.78;76.98;100040.06;5055310;28;20379;-74
2022/03/07 07:26:43;;;;;;;0.20;0.20;;;;;;;5.63;75.39;100035.34;5055670;28;20039;-74
2022/03/07 07:29:09;;;;;;;0.20;0.20;;;;;;;7.07;70.95;100036.78;5038337;28;20116;-74
2022/03/07 07:31:34;;;;;;;0.20;0.20;;;;;;;8.28;64.81;100035.09;5036694;28;20033;-73
2022/03/07 07:34:01;;;;;;;0.20;0.20;;;;;;;9.19;61.38;100032.50;5036222;28;20044;-74
2022/03/07 07:36:26;;;;;;;0.28;0.28;;;;;;;9.70;57.80;100027.03;5036005;28;20029;-74
2022/03/07 07:38:52;;;;;;;0.20;0.20;;;;;;;10.06;56.40;100038.16;5053678;28;20112;-74
2022/03/07 07:41:17;;;;;;;0.20;0.20;;;;;;;9.98;54.69;100043.56;5054104;28;20100;-74
2022/03/07 07:43:43;;;;;;;0.20;0.20;;;;;;;10.81;52.90;100045.31;5035909;28;20055;-75
2022/03/07 07:46:09;;;;;;;0.20;0.20;;;;;;;10.83;51.46;100054.13;5035994;28;20116;-75
2022/03/07 07:48:35;;;;;;;0.20;0.20;;;;;;;11.48;51.32;100051.31;5035892;28;20055;-76
2022/03/07 07:51:00;;;;;;;0.20;0.20;;;;;;;11.73;51.38;100043.38;5054553;28;20029;-74
2022/03/07 07:53:26;;;;;;;0.20;0.20;;;;;;;12.58;48.51;100053.00;5035736;28;20029;-74
2022/03/07 07:55:51;;;;;;;0.20;0.20;;;;;;;12.56;45.94;100060.94;5035802;28;20062;-74
2022/03/07 07:58:17;;;;;;;0.13;0.13;;;;;;;12.50;47.61;100062.44;5035376;28;20021;-74
2022/03/07 08:00:43;;;;;;;0.20;0.20;;;;;;;12.75;46.72;100051.59;5035625;28;20039;-74
2022/03/07 08:03:14;;;;;;;0.20;0.20;;;;;;;13.03;43.02;100051.13;5035541;28;20052;-74
2022/03/07 08:05:40;;;;;;;0.20;0.20;;;;;;;13.69;43.52;100037.41;5036267;28;20025;-74
2022/03/07 08:08:05;;;;;;;0.20;0.20;;;;;;;13.64;42.41;100051.75;5053522;28;20491;-74
2022/03/07 08:10:31;;;;;;;0.20;0.20;;;;;;;13.91;43.55;100055.16;5036432;28;20097;-74
2022/03/07 08:12:58;;;;;;;0.20;0.20;;;;;;;13.56;39.93;100059.25;5035584;28;20025;-74
2022/03/07 08:15:23;;;;;;;0.20;0.20;;;;;;;13.51;41.52;100056.81;5054271;28;20074;-74
2022/03/07 08:17:50;;;;;;;0.15;0.15;;;;;;;12.93;42.28;100068.56;5053179;28;20033;-74
2022/03/07 08:20:20;;;;;;;0.20;0.20;;;;;;;12.02;43.60;100061.38;5053071;28;20094;-74
2022/03/07 08:22:46;;;;;;;0.20;0.20;;;;;;;12.14;43.41;100024.09;5053446;28;20025;-74
2022/03/07 08:25:13;;;;;;;0.20;0.20;;;;;;;11.86;44.79;100060.72;5035769;28;20029;-74
2022/03/07 08:27:39;;;;;;;0.20;0.20;;;;;;;11.95;44.28;100058.50;5036631;28;20378;-74
2022/03/07 08:30:07;;;;;;;0.20;0.20;;;;;;;11.52;45.68;100064.16;5038350;28;20110;-73
2022/03/07 08:32:34;;;;;;;0.20;0.20;;;;;;;11.87;44.06;100056.75;5037419;28;20095;-74
2022/03/07 08:35:00;;;;;;;0.20;0.20;;;;;;;11.82;46.71;100049.50;5035796;28;20124;-73
2022/03/07 08:37:26;;;;;;;0.20;0.20;;;;;;;11.34;47.67;100051.06;5035958;28;20029;-80
2022/03/07 08:39:52;;;;;;;0.20;0.20;;;;;;;12.04;45.15;100051.47;5036839;28;20029;-73
2022/03/07 08:42:19;;;;;;;0.20;0.20;;;;;;;11.99;43.53;100048.19;5035375;28;20045;-73
2022/03/07 08:44:45;;;;;;;0.20;0.20;;;;;;;12.52;42.96;100050.94;5035346;28;20024;-73
2022/03/07 08:47:11;;;;;;;0.10;0.10;;;;;;;13.01;43.02;100052.69;5036028;28;20037;-74
2022/03/07 08:49:36;;;;;;;0.20;0.20;;;;;;;12.90;41.27;100046.19;5035814;28;20025;-74
2022/03/07 08:52:02;;;;;;;0.20;0.20;;;;;;;13.30;41.90;100045.44;5035598;28;20375;-74
2022/03/07 08:54:28;;;;;;;0.20;0.20;;;;;;;13.77;40.75;100046.63;5034891;28;20112;-73
2022/03/07 08:56:56;;;;;;;0.20;0.20;;;;;;;13.40;40.59;100046.72;5035340;28;20063;-74
2022/03/07 08:59:24;;;;;;;0.20;0.20;;;;;;;12.55;42.51;100039.78;5054135;28;20031;-74
2022/03/07 09:01:50;;;;;;;0.20;0.20;;;;;;;12.14;41.41;100038.03;5035255;28;20033;-74
2022/03/07 09:04:15;;;;;;;0.20;0.20;;;;;;;12.20;41.22;100044.91;5037279;28;20112;-74
2022/03/07 09:06:42;;;;;;;0.20;0.20;;;;;;;12.47;41.02;100043.69;5039089;28;20464;-74
2022/03/07 09:09:08;;;;;;;0.20;0.20;;;;;;;12.89;42.10;100044.56;5056273;28;20017;-74
2022/03/07 09:11:33;;;;;;;0.20;0.20;;;;;;;13.53;40.19;100046.06;5038455;28;20037;-73
2022/03/07 09:13:59;;;;;;;0.20;0.20;;;;;;;13.12;39.79;100036.84;5056217;28;20119;-74
2022/03/07 09:16:24;;;;;;;0.20;0.20;;;;;;;13.59;39.53;100047.31;5038856;28;20025;-73
2022/03/07 09:18:50;;;;;;;0.20;0.20;;;;;;;14.35;37.94;100034.63;5038494;28;20036;-73
2022/03/07 09:21:15;;;;;;;0.20;0.20;;;;;;;14.14;37.83;100038.91;5056350;28;20045;-72
2022/03/07 09:23:42;;;;;;;0.20;0.20;;;;;;;14.44;36.72;100017.47;5038455;28;20025;-73
2022/03/07 09:26:11;;;;;;;0.20;0.20;;;;;;;15.04;35.55;100036.53;5038339;28;20059;-73
2022/03/07 09:28:37;;;;;;;0.20;0.20;;;;;;;15.41;34.59;100044.59;5038253;28;20028;-73
2022/03/07 09:31:03;;;;;;;0.17;0.17;;;;;;;15.33;35.37;100037.34;5038531;28;20059;-74
2022/03/07 09:33:29;;;;;;;0.20;0.20;;;;;;;16.20;34.43;100040.56;5056116;28;20056;-73
2022/03/07 09:35:55;;;;;;;0.20;0.20;;;;;;;16.69;32.84;100038.78;5038200;28;20069;-73
2022/03/07 09:38:21;;;;;;;0.20;0.20;;;;;;;16.70;33.23;100029.16;5038147;28;20036;-73
2022/03/07 09:40:46;;;;;;;0.20;0.20;;;;;;;17.03;32.85;100043.88;5054758;28;20037;-74
2022/03/07 09:43:14;;;;;;;0.10;0.10;;;;;;;17.61;31.75;100041.47;5038000;28;20112;-73
2022/03/07 09:45:43;;;;;;;0.20;0.20;;;;;;;17.52;31.12;100036.31;5055867;28;20032;-74
2022/03/07 09:48:12;;;;;;;0.20;0.20;;;;;;;17.39;31.70;100035.22;5037883;28;20026;-74
2022/03/07 09:50:38;;;;;;;0.15;0.15;;;;;;;15.76;33.30;100043.00;5038935;28;20466;-73
2022/03/07 09:53:04;;;;;;;0.10;0.10;;;;;;;14.22;35.86;100041.72;5038497;28;20352;-73
2022/03/07 09:55:30;;;;;;;0.20;0.20;;;;;;;13.71;36.70;100039.81;5037868;28;20083;-73
2022/03/07 09:57:56;;;;;;;0.10;0.10;;;;;;;13.54;36.78;100035.69;5055699;28;20021;-73
2022/03/07 10:00:24;;;;;;;0.20;0.20;;;;;;;14.38;35.39;100034.66;5055859;28;20029;-74
2022/03/07 10:02:58;;;;;;;0.20;0.20;;;;;;;12.22;37.30;100011.88;5037672;28;20021;-74
2022/03/07 10:05:33;;;;;;;0.20;0.20;;;;;;;13.03;36.36;100019.59;5038007;28;20079;-74
2022/03/07 10:07:59;;;;;;;0.20;0.20;;;;;;;13.77;35.35;100011.09;5037485;28;20108;-73
2022/03/07 10:10:33;;;;;;;0.20;0.20;;;;;;;13.99;36.13;100031.59;5055060;28;20064;-73
2022/03/07 10:13:06;;;;;;;0.20;0.20;;;;;;;13.63;36.35;100030.53;5037145;28;20031;-73
2022/03/07 10:15:32;;;;;;;0.20;0.20;;;;;;;13.76;35.64;100022.66;5037079;28;20476;-74
2022/03/07 10:17:58;;;;;;;0.15;0.15;;;;;;;12.58;37.93;100029.88;5037548;28;20114;-74
2022/03/07 10:20:25;;;;;;;0.20;0.20;;;;;;;11.80;39.18;100010.84;5037226;28;20078;-75
2022/03/07 10:22:54;;;;;;;0.20;0.20;;;;;;;12.09;39.32;100007.69;5034077;28;20029;-74
2022/03/07 10:25:27;;;;;;;0.20;0.20;;;;;;;12.44;39.44;100027.69;5034486;28;20540;-73
2022/03/07 10:27:53;;;;;;;0.20;0.20;;;;;;;12.55;39.30;100025.84;5037634;28;20370;-74
2022/03/07 10:30:26;;;;;;;0.20;0.20;;;;;;;13.26;36.96;100025.03;5055495;28;20045;-74
2022/03/07 10:33:25;;;;;;;0.20;0.20;;;;;;;12.93;37.95;100018.28;5037606;28;20468;-74
2022/03/07 10:35:53;;;;;;;0.20;0.20;;;;;;;12.23;38.74;100027.41;5025876;28;20044;-74
2022/03/07 10:38:21;;;;;;;0.20;0.20;;;;;;;11.86;38.73;100022.50;5034763;28;20480;-74
2022/03/07 10:40:53;;;;;;;0.20;0.20;;;;;;;11.39;39.53;100012.56;5037489;28;20048;-74
2022/03/07 10:43:20;;;;;;;0.20;0.20;;;;;;;12.29;38.67;100018.34;5055127;28;20490;-74
2022/03/07 10:45:48;;;;;;;0.20;0.20;;;;;;;12.18;38.40;100016.59;5036898;28;20467;-73
2022/03/07 10:48:14;;;;;;;0.20;0.20;;;;;;;11.73;39.29;100010.75;5037062;28;20090;-74
2022/03/07 10:50:42;;;;;;;0.20;0.20;;;;;;;11.08;40.94;100024.78;5036875;28;20036;-74
2022/03/07 10:53:08;;;;;;;0.20;0.20;;;;;;;10.85;39.07;100024.72;5054938;28;20021;-74
2022/03/07 10:55:34;;;;;;;0.20;0.20;;;;;;;11.90;37.20;100020.59;5054768;28;20038;-73
2022/03/07 10:58:09;;;;;;;0.20;0.20;;;;;;;11.85;37.72;100009.75;5036846;28;20079;-73
2022/03/07 11:00:58;;;;;;;0.20;0.20;;;;;;;11.78;35.99;100015.19;5054563;28;20431;-73
2022/03/07 11:03:30;;;;;;;0.20;0.20;;;;;;;12.33;35.17;100013.59;5054219;28;20375;-73
2022/03/07 11:05:57;;;;;;;0.20;0.20;;;;;;;13.50;33.70;100004.09;5036670;28;20036;-73
2022/03/07 11:08:23;;;;;;;0.20;0.20;;;;;;;13.46;34.57;99998.47;5054374;28;20029;-74
2022/03/07 11:10:52;;;;;;;0.20;0.20;;;;;;;12.63;36.13;99998.84;5033151;28;20037;-73
2022/03/07 11:13:19;;;;;;;0.20;0.20;;;;;;;13.05;37.32;99992.91;5030580;28;20029;-73
2022/03/07 11:15:47;;;;;;;0.20;0.20;;;;;;;12.88;35.84;99996.28;5025752;28;20033;-73
2022/03/07 11:18:15;;;;;;;0.20;0.20;;;;;;;12.71;34.89;99999.72;5033005;28;20029;-73
2022/03/07 11:20:44;;;;;;;0.10;0.10;;;;;;;13.06;34.55;99994.50;5049796;28;20042;-74
2022/03/07 11:23:17;;;;;;;0.20;0.20;;;;;;;12.39;34.24;99983.38;5033552;28;20033;-73
2022/03/07 11:25:44;;;;;;;0.20;0.20;;;;;;;12.56;34.65;99985.56;5046711;28;20025;-73
2022/03/07 11:28:10;;;;;;;0.20;0.20;;;;;;;12.62;36.80;99990.81;5036296;28;20021;-74
2022/03/07 11:30:42;;;;;;;0.20;0.20;;;;;;;12.63;38.42;99989.66;5038048;28;20060;-73
2022/03/07 11:33:16;;;;;;;0.20;0.20;;;;;;;12.54;39.01;99998.31;5037084;28;20131;-74
2022/03/07 11:35:44;;;;;;;0.20;0.20;;;;;;;12.31;38.72;99985.28;5052629;28;20166;-74